createdAt,value
2019-02-19T00:02:06.968Z,9.10
2019-02-19T00:04:35.842Z,9.20
2019-02-19T00:07:04.480Z,9.20
2019-02-19T00:09:33.152Z,9.20
2019-02-19T00:12:01.859Z,9.10
2019-02-19T00:14:30.479Z,9.10
2019-02-19T00:16:59.189Z,9.00
2019-02-19T00:19:28.018Z,9.00
2019-02-19T00:21:56.660Z,9.00
2019-02-19T00:24:25.343Z,9.00
2019-02-19T00:26:54.002Z,9.00
2019-02-19T00:29:22.681Z,9.00
2019-02-19T00:31:51.382Z,9.00
2019-02-19T00:34:20.059Z,9.00
2019-02-19T00:36:48.855Z,9.00
2019-02-19T00:39:17.458Z,9.00
2019-02-19T00:41:46.078Z,9.00
2019-02-19T00:44:14.752Z,9.00
2019-02-19T00:46:43.383Z,9.00
2019-02-19T00:49:12.054Z,8.90
2019-02-19T00:51:40.879Z,8.90
2019-02-19T00:54:09.570Z,8.90
2019-02-19T00:56:38.186Z,8.90
2019-02-19T00:59:06.810Z,8.90
2019-02-19T01:01:35.679Z,8.90
2019-02-19T01:04:04.366Z,8.80
2019-02-19T01:06:33.039Z,8.80
2019-02-19T01:09:01.675Z,8.70
2019-02-19T01:11:30.347Z,8.80
2019-02-19T01:13:59.126Z,8.80
2019-02-19T01:16:27.730Z,8.80
2019-02-19T01:18:56.430Z,8.70
2019-02-19T01:21:25.118Z,8.70
2019-02-19T01:23:53.744Z,8.70
2019-02-19T01:26:22.355Z,8.60
2019-02-19T01:28:51.125Z,8.60
2019-02-19T01:31:19.790Z,8.60
2019-02-19T01:33:48.624Z,8.50
2019-02-19T01:36:17.274Z,8.50
2019-02-19T01:38:45.907Z,8.50
2019-02-19T01:41:14.527Z,8.40
2019-02-19T01:43:43.151Z,8.40
2019-02-19T01:46:11.919Z,8.30
2019-02-19T01:48:40.627Z,8.30
2019-02-19T01:51:09.310Z,8.20
2019-02-19T01:53:38.057Z,8.20
2019-02-19T01:56:06.820Z,8.30
2019-02-19T01:58:35.433Z,8.30
2019-02-19T02:01:04.217Z,8.30
2019-02-19T02:03:32.823Z,8.30
2019-02-19T02:06:01.455Z,8.30
2019-02-19T02:08:30.184Z,8.30
2019-02-19T02:10:59.063Z,8.20
2019-02-19T02:13:27.802Z,8.10
2019-02-19T02:15:56.526Z,8.00
2019-02-19T02:18:25.125Z,8.00
2019-02-19T02:20:53.764Z,8.00
2019-02-19T02:23:22.366Z,8.00
2019-02-19T02:25:50.996Z,8.00
2019-02-19T02:28:19.590Z,8.00
2019-02-19T02:30:48.252Z,7.90
2019-02-19T02:33:16.858Z,7.90
2019-02-19T02:35:45.498Z,7.80
2019-02-19T02:38:14.171Z,7.80
2019-02-19T02:40:43.062Z,7.80
2019-02-19T02:43:11.672Z,7.90
2019-02-19T02:45:40.574Z,8.00
2019-02-19T02:48:09.188Z,8.10
2019-02-19T02:50:37.808Z,8.20
2019-02-19T02:53:06.422Z,8.40
2019-02-19T02:55:35.061Z,8.40
2019-02-19T02:58:03.961Z,8.50
2019-02-19T03:00:32.557Z,8.60
2019-02-19T03:03:01.189Z,8.60
2019-02-19T03:05:30.198Z,8.50
2019-02-19T03:08:00.504Z,8.50
2019-02-19T03:10:29.107Z,8.50
2019-02-19T03:12:57.740Z,8.50
2019-02-19T03:15:45.679Z,8.50
2019-02-19T03:18:14.310Z,8.50
2019-02-19T03:20:42.909Z,8.50
2019-02-19T03:23:11.743Z,8.50
2019-02-19T03:25:40.354Z,8.60
2019-02-19T03:28:09.043Z,8.50
2019-02-19T03:30:37.659Z,8.60
2019-02-19T03:33:06.339Z,8.60
2019-02-19T03:35:35.024Z,8.60
2019-02-19T03:38:03.798Z,8.60
2019-02-19T03:40:32.893Z,8.60
2019-02-19T03:43:01.583Z,8.60
2019-02-19T03:45:30.252Z,8.60
2019-02-19T03:47:58.954Z,8.60
2019-02-19T03:50:27.590Z,8.60
2019-02-19T03:52:56.304Z,8.60
2019-02-19T03:55:25.041Z,8.60
2019-02-19T03:57:53.675Z,8.50
2019-02-19T04:00:22.538Z,8.50
2019-02-19T04:02:51.252Z,8.50
2019-02-19T04:05:19.974Z,8.50
2019-02-19T04:07:48.595Z,8.50
2019-02-19T04:10:17.359Z,8.40
2019-02-19T04:12:45.993Z,8.30
2019-02-19T04:15:14.696Z,8.20
2019-02-19T04:17:43.538Z,8.10
2019-02-19T04:20:12.175Z,8.00
2019-02-19T04:22:40.778Z,7.90
2019-02-19T04:25:09.418Z,7.80
2019-02-19T04:27:38.090Z,7.80
2019-02-19T04:30:07.582Z,7.70
2019-02-19T04:32:36.192Z,7.60
2019-02-19T04:35:05.378Z,7.60
2019-02-19T04:37:33.970Z,7.60
2019-02-19T04:40:03.050Z,7.50
2019-02-19T04:42:31.663Z,7.50
2019-02-19T04:45:00.472Z,7.40
2019-02-19T04:47:29.059Z,7.30
2019-02-19T04:49:57.741Z,7.30
2019-02-19T04:52:26.352Z,7.30
2019-02-19T04:54:54.995Z,7.30
2019-02-19T04:57:23.595Z,7.30
2019-02-19T04:59:52.844Z,7.20
2019-02-19T05:02:21.638Z,7.20
2019-02-19T05:04:50.317Z,7.20
2019-02-19T05:07:18.978Z,7.20
2019-02-19T05:09:47.681Z,7.20
2019-02-19T05:12:16.399Z,7.20
2019-02-19T05:14:45.059Z,7.20
2019-02-19T05:17:33.015Z,7.20
2019-02-19T05:20:01.617Z,7.20
2019-02-19T05:22:30.362Z,7.20
2019-02-19T05:24:58.967Z,7.20
2019-02-19T05:27:27.602Z,7.20
2019-02-19T05:29:56.301Z,7.20
2019-02-19T05:32:24.927Z,7.10
2019-02-19T05:34:53.607Z,7.10
2019-02-19T05:37:22.301Z,7.10
2019-02-19T05:39:51.935Z,7.20
2019-02-19T05:42:20.742Z,7.20
2019-02-19T05:44:49.616Z,7.20
2019-02-19T05:47:18.214Z,7.20
2019-02-19T05:49:50.344Z,7.30
2019-02-19T05:52:18.979Z,7.30
2019-02-19T05:54:47.601Z,7.30
2019-02-19T05:57:16.229Z,7.30
2019-02-19T05:59:44.970Z,7.30
2019-02-19T06:02:13.655Z,7.30
2019-02-19T06:04:42.270Z,7.30
2019-02-19T06:07:10.946Z,7.30
2019-02-19T06:09:39.702Z,7.40
2019-02-19T06:12:08.450Z,7.40
2019-02-19T06:14:37.230Z,7.40
2019-02-19T06:17:06.810Z,7.40
2019-02-19T06:19:36.547Z,7.40
2019-02-19T06:22:06.154Z,7.40
2019-02-19T06:24:35.675Z,7.40
2019-02-19T06:27:05.325Z,7.40
2019-02-19T06:29:34.894Z,7.40
2019-02-19T06:32:04.776Z,7.40
2019-02-19T06:34:34.318Z,7.40
2019-02-19T06:37:03.894Z,7.40
2019-02-19T06:39:33.483Z,7.40
2019-02-19T06:42:02.983Z,7.30
2019-02-19T06:44:32.514Z,7.30
2019-02-19T06:47:06.918Z,7.30
2019-02-19T06:49:33.394Z,7.30
2019-02-19T06:52:03.042Z,7.20
2019-02-19T06:54:32.021Z,7.30
2019-02-19T06:57:01.482Z,7.30
2019-02-19T06:59:31.083Z,7.20
2019-02-19T07:02:11.355Z,7.20
2019-02-19T07:04:42.602Z,7.30
2019-02-19T07:07:12.114Z,7.20
2019-02-19T07:09:41.701Z,7.20
2019-02-19T07:12:11.221Z,7.20
2019-02-19T07:14:40.734Z,7.30
2019-02-19T07:17:15.732Z,7.30
2019-02-19T07:19:41.672Z,7.30
2019-02-19T07:29:20.835Z,7.40
2019-02-19T07:31:49.825Z,7.40
2019-02-19T07:34:19.231Z,7.50
2019-02-19T07:40:09.785Z,7.60
2019-02-19T07:42:39.360Z,7.70
2019-02-19T07:55:25.743Z,7.80
2019-02-19T07:57:54.779Z,7.90
2019-02-19T08:00:23.539Z,7.80
2019-02-19T09:53:03.449Z,10.40
2019-02-19T09:55:31.624Z,10.60
2019-02-19T09:57:59.762Z,10.20
2019-02-19T10:00:28.066Z,9.70
2019-02-19T10:03:15.612Z,10.40
2019-02-19T10:05:43.860Z,10.70
2019-02-19T10:15:42.711Z,10.20
2019-02-19T10:18:11.849Z,9.90
2019-02-19T10:20:40.880Z,10.10
2019-02-19T10:23:09.959Z,10.60
2019-02-19T10:25:39.008Z,11.10
2019-02-19T10:28:08.096Z,11.10
2019-02-19T10:30:37.220Z,11.50
2019-02-19T10:33:06.276Z,11.30
2019-02-19T10:35:35.303Z,11.60
2019-02-19T10:38:04.321Z,11.40
2019-02-19T10:40:33.473Z,10.90
2019-02-19T10:43:02.552Z,10.90
2019-02-19T10:45:31.605Z,10.90
2019-02-19T10:48:00.630Z,11.00
2019-02-19T10:50:29.666Z,11.30
2019-02-19T10:52:58.691Z,11.20
2019-02-19T10:55:27.706Z,11.80
2019-02-19T10:57:55.954Z,12.30
2019-02-19T11:00:24.486Z,12.90
2019-02-19T11:03:12.003Z,13.50
2019-02-19T11:05:40.240Z,13.20
2019-02-19T11:08:08.539Z,11.90
2019-02-19T11:10:36.695Z,11.50
2019-02-19T11:13:04.877Z,11.00
2019-02-19T11:15:33.037Z,10.70
2019-02-19T11:18:01.215Z,10.60
2019-02-19T11:20:29.604Z,10.40
2019-02-19T11:22:57.779Z,10.40
2019-02-19T11:25:26.086Z,10.60
2019-02-19T11:27:54.309Z,11.10
2019-02-19T11:30:22.467Z,11.30
2019-02-19T11:32:50.639Z,11.70
2019-02-19T11:35:18.880Z,11.90
2019-02-19T11:37:47.106Z,11.90
2019-02-19T11:40:15.413Z,12.10
2019-02-19T11:42:43.675Z,12.20
2019-02-19T11:45:13.456Z,12.50
2019-02-19T11:47:41.711Z,12.40
2019-02-19T11:50:10.896Z,12.00
2019-02-19T11:52:39.038Z,11.30
2019-02-19T11:55:09.111Z,11.10
2019-02-19T11:57:37.396Z,11.10
2019-02-19T12:00:07.424Z,10.90
2019-02-19T12:02:35.643Z,11.00
2019-02-19T12:05:07.070Z,11.50
2019-02-19T12:07:54.724Z,11.50
2019-02-19T12:10:23.035Z,11.30
2019-02-19T12:12:51.254Z,11.40
2019-02-19T12:15:19.433Z,11.50
2019-02-19T12:17:47.683Z,11.50
2019-02-19T12:20:15.863Z,11.40
2019-02-19T12:22:44.025Z,11.20
2019-02-19T12:25:12.280Z,11.20
2019-02-19T12:27:40.502Z,10.80
2019-02-19T12:30:28.056Z,10.80
2019-02-19T12:32:56.200Z,10.70
2019-02-19T12:35:24.458Z,10.60
2019-02-19T12:37:52.607Z,10.60
2019-02-19T12:40:20.834Z,10.50
2019-02-19T12:42:49.122Z,10.50
2019-02-19T12:45:17.416Z,10.60
2019-02-19T12:47:45.643Z,10.60
2019-02-19T12:50:14.992Z,10.70
2019-02-19T12:52:43.230Z,10.70
2019-02-19T12:55:11.531Z,10.70
2019-02-19T12:57:39.754Z,10.70
2019-02-19T13:00:09.448Z,10.80
2019-02-19T13:02:37.651Z,11.30
2019-02-19T13:05:06.874Z,11.50
2019-02-19T13:07:54.424Z,11.70
2019-02-19T13:10:22.582Z,11.50
2019-02-19T13:12:50.830Z,11.20
2019-02-19T13:15:21.049Z,11.20
2019-02-19T13:17:49.840Z,11.10
2019-02-19T13:20:18.607Z,10.90
2019-02-19T13:22:47.292Z,10.90
2019-02-19T13:25:16.113Z,10.90
2019-02-19T13:27:45.087Z,11.00
2019-02-19T13:30:15.395Z,11.20
2019-02-19T13:32:44.182Z,11.00
2019-02-19T13:35:13.177Z,11.10
2019-02-19T13:37:41.799Z,11.10
2019-02-19T13:40:11.963Z,11.20
2019-02-19T13:42:40.665Z,11.30
2019-02-19T13:45:10.615Z,11.30
2019-02-19T13:47:39.247Z,11.40
2019-02-19T13:50:09.617Z,11.30
2019-02-19T13:52:39.978Z,11.20
2019-02-19T13:55:10.471Z,11.10
2019-02-19T13:57:39.255Z,11.00
2019-02-19T14:00:10.402Z,11.10
2019-02-19T14:02:39.274Z,11.10
2019-02-19T14:05:08.593Z,11.10
2019-02-19T14:07:37.326Z,11.00
2019-02-19T14:10:25.391Z,10.80
2019-02-19T14:12:54.138Z,10.70
2019-02-19T14:15:52.799Z,10.60
2019-02-19T14:18:23.131Z,10.70
2019-02-19T14:20:56.291Z,10.70
2019-02-19T14:23:26.644Z,10.60
2019-02-19T14:25:57.112Z,10.70
2019-02-19T14:28:36.719Z,10.70
2019-02-19T14:31:07.006Z,10.60
2019-02-19T14:33:37.328Z,10.40
2019-02-19T14:36:22.946Z,10.30
2019-02-19T14:39:08.080Z,10.40
2019-02-19T14:41:50.242Z,10.70
2019-02-19T14:44:26.724Z,10.70
2019-02-19T14:47:08.845Z,10.70
2019-02-19T14:49:47.331Z,10.50
2019-02-19T14:52:17.115Z,10.40
2019-02-19T14:55:05.566Z,10.40
2019-02-19T14:57:48.018Z,10.40
2019-02-19T15:00:18.302Z,10.30
2019-02-19T15:02:51.490Z,10.30
2019-02-19T15:05:24.935Z,10.20
2019-02-19T15:08:13.668Z,10.30
2019-02-19T15:11:00.151Z,10.30
2019-02-19T15:13:33.003Z,10.30
2019-02-19T15:16:06.114Z,10.40
2019-02-19T15:18:44.972Z,10.30
2019-02-19T15:21:15.271Z,10.40
2019-02-19T15:23:51.486Z,10.40
2019-02-19T15:26:24.746Z,10.40
2019-02-19T15:28:57.866Z,10.30
2019-02-19T15:31:28.154Z,10.30
2019-02-19T15:33:58.482Z,10.40
2019-02-19T15:36:45.330Z,10.40
2019-02-19T15:39:32.369Z,10.40
2019-02-19T15:42:19.242Z,10.40
2019-02-19T15:44:52.699Z,10.30
2019-02-19T15:47:39.247Z,10.20
2019-02-19T15:50:12.768Z,10.20
2019-02-19T15:52:45.802Z,10.20
2019-02-19T15:55:32.491Z,10.10
2019-02-19T15:58:08.829Z,10.10
2019-02-19T16:00:43.067Z,10.00
2019-02-19T16:03:25.310Z,10.00
2019-02-19T16:06:04.701Z,9.90
2019-02-19T16:08:37.921Z,9.90
2019-02-19T16:11:08.891Z,9.90
2019-02-19T16:13:45.028Z,9.80
2019-02-19T16:16:18.139Z,9.80
2019-02-19T16:19:03.585Z,9.80
2019-02-19T16:21:36.799Z,9.80
2019-02-19T16:24:13.336Z,9.80
2019-02-19T16:26:46.565Z,9.70
2019-02-19T16:29:19.879Z,9.70
2019-02-19T16:31:53.363Z,9.70
2019-02-19T16:34:26.637Z,9.70
2019-02-19T16:36:57.002Z,9.70
2019-02-19T16:39:27.261Z,9.60
2019-02-19T16:41:57.600Z,9.60
2019-02-19T16:44:28.024Z,9.50
2019-02-19T16:47:10.453Z,9.50
2019-02-19T16:49:40.896Z,9.50
2019-02-19T16:52:13.913Z,9.50
2019-02-19T16:54:53.179Z,9.40
2019-02-19T16:57:35.530Z,9.50
2019-02-19T17:00:07.505Z,9.50
2019-02-19T17:02:46.919Z,9.50
2019-02-19T17:05:29.215Z,9.40
2019-02-19T17:07:59.526Z,9.30
2019-02-19T17:10:41.881Z,9.30
2019-02-19T17:13:14.907Z,9.30
2019-02-19T17:15:45.258Z,9.20
2019-02-19T17:18:32.065Z,9.10
2019-02-19T17:21:02.451Z,9.10
2019-02-19T17:23:43.798Z,9.00
2019-02-19T17:26:14.037Z,9.00
2019-02-19T17:29:00.691Z,9.00
2019-02-19T17:31:31.020Z,8.90
2019-02-19T17:34:01.266Z,8.80
2019-02-19T17:36:34.323Z,8.60
2019-02-19T17:39:20.962Z,8.60
2019-02-19T17:42:00.007Z,8.50
2019-02-19T17:44:30.530Z,8.60
2019-02-19T17:47:00.920Z,8.60
2019-02-19T17:49:37.187Z,8.60
2019-02-19T17:52:25.523Z,8.60
2019-02-19T17:55:10.939Z,8.60
2019-02-19T17:57:41.216Z,8.60
2019-02-19T18:00:18.500Z,8.60
2019-02-19T18:02:51.621Z,8.60
2019-02-19T18:05:24.909Z,8.60
2019-02-19T18:07:55.202Z,8.60
2019-02-19T18:10:34.235Z,8.50
2019-02-19T18:13:16.583Z,8.50
2019-02-19T18:15:46.906Z,8.60
2019-02-19T18:18:17.193Z,8.60
2019-02-19T18:20:47.871Z,8.60
2019-02-19T18:23:16.203Z,8.60
2019-02-19T18:25:44.885Z,8.60
2019-02-19T18:28:13.541Z,8.60
2019-02-19T18:30:42.222Z,8.50
2019-02-19T18:33:10.950Z,8.50
2019-02-19T18:35:39.590Z,8.30
2019-02-19T18:38:08.290Z,8.20
2019-02-19T18:40:36.901Z,8.10
2019-02-19T18:43:05.711Z,8.00
2019-02-19T18:45:34.398Z,8.00
2019-02-19T18:48:03.089Z,7.90
2019-02-19T18:50:31.845Z,7.80
2019-02-19T18:53:00.526Z,7.70
2019-02-19T18:55:29.216Z,7.60
2019-02-19T18:57:57.904Z,7.50
2019-02-19T19:00:26.636Z,7.40
2019-02-19T19:02:55.393Z,7.30
2019-02-19T19:05:24.270Z,7.30
2019-02-19T19:07:53.079Z,7.20
2019-02-19T19:10:21.817Z,7.10
2019-02-19T19:12:50.438Z,7.10
2019-02-19T19:15:19.198Z,7.00
2019-02-19T19:17:47.979Z,6.90
2019-02-19T19:20:16.668Z,6.80
2019-02-19T19:22:47.091Z,6.70
2019-02-19T19:25:16.147Z,6.60
2019-02-19T19:27:44.901Z,6.60
2019-02-19T19:30:14.434Z,6.50
2019-02-19T19:32:43.263Z,6.50
2019-02-19T19:35:11.902Z,6.50
2019-02-19T19:37:40.708Z,6.50
2019-02-19T19:40:10.903Z,6.50
2019-02-19T19:42:39.570Z,6.40
2019-02-19T19:45:11.855Z,6.40
2019-02-19T19:47:40.464Z,6.40
2019-02-19T19:50:11.820Z,6.40
2019-02-19T19:52:40.522Z,6.40
2019-02-19T19:55:11.055Z,6.40
2019-02-19T19:57:40.654Z,6.50
2019-02-19T20:00:12.421Z,6.50
2019-02-19T20:02:46.115Z,6.50
2019-02-19T20:05:15.864Z,6.40
2019-02-19T20:07:45.439Z,6.30
2019-02-19T20:10:15.776Z,6.30
2019-02-19T20:12:45.335Z,6.40
2019-02-19T20:15:15.357Z,6.40
2019-02-19T20:17:45.235Z,6.40
2019-02-19T20:20:14.950Z,6.40
2019-02-19T20:22:44.636Z,6.40
2019-02-19T20:25:14.660Z,6.40
2019-02-19T20:27:44.379Z,6.40
2019-02-19T20:30:16.183Z,6.50
2019-02-19T20:32:45.741Z,6.50
2019-02-19T20:35:15.424Z,6.60
2019-02-19T20:37:53.488Z,6.70
2019-02-19T20:40:16.308Z,6.80
2019-02-19T20:42:46.023Z,6.80
2019-02-19T20:45:15.664Z,6.80
2019-02-19T20:47:45.427Z,6.80
2019-02-19T20:50:15.431Z,6.90
2019-02-19T20:52:44.967Z,6.90
2019-02-19T20:55:14.631Z,6.80
2019-02-19T20:57:44.250Z,6.80
2019-02-19T21:00:16.674Z,6.70
2019-02-19T21:02:46.261Z,6.60
2019-02-19T21:05:16.224Z,6.60
2019-02-19T21:07:45.916Z,6.50
2019-02-19T21:10:17.275Z,6.50
2019-02-19T21:12:46.850Z,6.50
2019-02-19T21:15:16.564Z,6.50
2019-02-19T21:17:46.163Z,6.50
2019-02-19T21:20:15.791Z,6.50
2019-02-19T21:22:45.304Z,6.60
2019-02-19T21:25:15.114Z,6.60
2019-02-19T21:27:44.684Z,6.50
2019-02-19T21:30:15.514Z,6.60
2019-02-19T21:32:45.409Z,6.60
2019-02-19T21:35:14.937Z,6.60
2019-02-19T21:37:44.507Z,6.60
2019-02-19T21:40:15.352Z,6.60
2019-02-19T21:42:44.926Z,6.60
2019-02-19T21:45:15.398Z,6.60
2019-02-19T21:47:48.168Z,6.60
2019-02-19T21:50:17.826Z,6.60
2019-02-19T21:52:47.707Z,6.60
2019-02-19T21:55:17.807Z,6.60
2019-02-19T21:57:47.336Z,6.70
2019-02-19T22:00:18.647Z,6.60
2019-02-19T22:02:48.769Z,6.70
2019-02-19T22:05:18.900Z,6.70
2019-02-19T22:07:48.488Z,6.70
2019-02-19T22:10:18.134Z,6.70
2019-02-19T22:12:47.661Z,6.70
2019-02-19T22:15:17.290Z,6.60
2019-02-19T22:17:47.058Z,6.50
2019-02-19T22:20:38.193Z,6.40
2019-02-19T22:23:08.606Z,6.30
2019-02-19T22:25:38.439Z,6.30
2019-02-19T22:28:08.201Z,6.30
2019-02-19T22:30:37.882Z,6.30
2019-02-19T22:33:07.509Z,6.30
2019-02-19T22:35:36.989Z,6.20
2019-02-19T22:38:06.577Z,6.20
2019-02-19T22:40:36.365Z,6.20
2019-02-19T22:43:06.293Z,6.20
2019-02-19T22:45:35.947Z,6.20
2019-02-19T22:48:05.621Z,6.30
2019-02-19T22:50:35.267Z,6.30
2019-02-19T22:53:06.622Z,6.40
2019-02-19T22:55:51.724Z,6.50
2019-02-19T22:58:21.506Z,6.50
2019-02-19T23:00:57.163Z,6.60
2019-02-19T23:03:27.740Z,6.60
2019-02-19T23:05:57.301Z,6.60
2019-02-19T23:08:27.003Z,6.60
2019-02-19T23:10:56.578Z,6.50
2019-02-19T23:13:26.351Z,6.50
2019-02-19T23:15:56.006Z,6.30
2019-02-19T23:18:25.597Z,6.20
2019-02-19T23:20:55.250Z,6.10
2019-02-19T23:23:24.954Z,6.00
2019-02-19T23:25:54.604Z,5.80
2019-02-19T23:28:24.138Z,5.80
2019-02-19T23:30:53.632Z,5.60
2019-02-19T23:33:23.145Z,5.60
2019-02-19T23:35:55.087Z,5.60
2019-02-19T23:38:24.759Z,5.60
2019-02-19T23:40:54.525Z,5.50
2019-02-19T23:43:24.098Z,5.40
2019-02-19T23:45:53.691Z,5.30
2019-02-19T23:48:23.216Z,5.30
2019-02-19T23:50:52.782Z,5.30
2019-02-19T23:53:22.338Z,5.20
2019-02-19T23:55:52.088Z,5.20
2019-02-19T23:58:22.292Z,5.10
